Capitol Logistics 463


KRIV
March Air Reserve Base
Riverside, California, US
KTPA
Tampa International Airport
Tampa, Florida, US

Activity Log

Date Flight Route Aircraft Duration
10/16/2019 CPX463 TRM J169 TFD J50 SSO J4 EWM SJT CLL DAS LEV Y280 CHRGE SIMMR BLOND5 B738 4h 46m
09/01/2019 CPX463 TRM J169 TFD J50 SSO J4 EWM SJT CLL DAS LEV Y280 CHRGE SIMMR BLOND5 B738 4h 37m

Route Details

Aircraft Information
Primary: Boeing 737-800BCF
Backup: Not Available
Route Data
Distance: 1817nm
Sched. Duration: 4h 04m
Avg. Duration: 4h 42m (+38m)
Times Flown: 2
Recm'd Route: TRM J169 TFD J50 SSO J4 EWM SJT CLL DAS LEV Y280 CHRGE SIMMR BLOND5
Planned Altitude: 33,000ft
Origin Wx: KRIV 291858Z AUTO 11006KT 10SM CLR 28/M06 A3006 RMK AO2 SLP172 T02831063
Dest. Wx: KTPA 291853Z 22010KT 10SM SCT029 BKN050 31/23 A2988 RMK AO2 SLP118 SCT V BKN T03060228
Notes:

Financial History
Total Freight: 81,312lbs
Average Load: 40,656lbs/flt
Fuel Used: 50,120lbs
Avg. Fuel Used: 25,060lbs/flt
Fuel Expense: $34,583
Avg. Fuel Expense: $17,291
Avg. Fuel Cost: $0.69/lbs
Total Gross Income: $106,519
Pilot Pay: $458
Total Expenses: $11,608
Total Revenue: $57,982
Average Revenue: $53,259.36